Hunter Army Air Field Savannah US
ICAO: KSVN
IATA: SVN
Category: Medium
Scheduled Services: No

Elevation: 41 ft
TransAlt. 18000 ft.

Airport Communications:
SAVANNAH APP/DEP:118.4
ATIS:32.312
CTAF:133.55
GND:121.8
USCG SAVANNAH AIR:34.5
ARNG OPS:38.15
PMSV METRO:30.9
PTD:126.2
TWR:46.7

KSVN Zoom In..

Runways:

(A) RW 10 length 11375 ft width 200 ft
---- / hdg 96

(B) RW 28 length 11375 ft width 200 ft
ILS 109.50 / hdg 276

Location; KSVN
Day. 31 / Time. 11.56 Zulu
* Altimeter: 29.97
* Temperature: 24° c. 75.2°f.
* Wind from: 280° Speed 05 kn.
Dewpoint: 22° c.
Visibility: 10 Statute Miles.
Clouds: Clear (automated report).

KSVN 311156Z AUTO 28005KT 10SM CLR 24/22 A2997 RMK AO2 SLP152 T02400217 10240 20222 52013 $


Wind From 280°
Speed 05 kn.

 
 
jpsmedia worldairports.se 2020   terms of use